createdAt,value
2019-05-09T00:01:58.307Z,16.25
2019-05-09T00:04:33.482Z,17.00
2019-05-09T00:07:07.412Z,16.25
2019-05-09T00:09:41.112Z,17.25
2019-05-09T00:12:14.828Z,17.25
2019-05-09T00:14:48.519Z,18.50
2019-05-09T00:17:23.265Z,19.25
2019-05-09T00:19:57.153Z,19.00
2019-05-09T00:22:33.246Z,18.75
2019-05-09T00:25:07.103Z,16.60
2019-05-09T00:27:40.812Z,19.50
2019-05-09T00:30:14.515Z,17.25
2019-05-09T00:32:48.226Z,16.00
2019-05-09T00:35:23.369Z,17.00
2019-05-09T00:37:57.237Z,19.00
2019-05-09T00:40:30.940Z,18.00
2019-05-09T00:43:04.646Z,16.25
2019-05-09T00:45:38.344Z,19.75
2019-05-09T00:48:14.011Z,16.20
2019-05-09T00:50:47.470Z,20.00
2019-05-09T00:53:23.101Z,18.50
2019-05-09T00:55:56.587Z,15.50
2019-05-09T00:58:30.287Z,17.25
2019-05-09T01:01:04.514Z,18.00
2019-05-09T01:03:38.396Z,19.75
2019-05-09T01:06:13.457Z,18.50
2019-05-09T01:08:47.295Z,19.00
2019-05-09T01:11:21.139Z,18.00
2019-05-09T01:13:54.866Z,19.00
2019-05-09T01:16:28.551Z,21.00
2019-05-09T01:19:03.657Z,21.00
2019-05-09T01:21:37.544Z,20.50
2019-05-09T01:24:11.272Z,11.80
2019-05-09T01:26:46.616Z,21.00
2019-05-09T01:29:20.532Z,24.25
2019-05-09T01:31:54.223Z,22.25
2019-05-09T01:34:27.940Z,24.00
2019-05-09T01:37:03.494Z,22.00
2019-05-09T01:39:37.477Z,25.00
2019-05-09T01:42:11.175Z,22.75
2019-05-09T01:44:44.886Z,24.50
2019-05-09T01:47:18.599Z,25.50
2019-05-09T01:49:53.839Z,25.20
2019-05-09T01:52:27.762Z,26.75
2019-05-09T01:55:03.659Z,24.80
2019-05-09T01:57:36.927Z,28.00
2019-05-09T02:00:10.639Z,25.25
2019-05-09T02:02:44.346Z,24.50
2019-05-09T02:05:18.328Z,25.20
2019-05-09T02:07:54.107Z,24.25
2019-05-09T02:10:27.437Z,24.20
2019-05-09T02:13:03.058Z,25.00
2019-05-09T02:15:37.149Z,25.00
2019-05-09T02:18:10.872Z,26.00
2019-05-09T02:20:44.849Z,25.00
2019-05-09T02:23:18.555Z,25.00
2019-05-09T02:26:13.589Z,24.75
2019-05-09T02:28:47.106Z,25.25
2019-05-09T02:31:20.825Z,24.75
2019-05-09T02:33:54.544Z,25.80
2019-05-09T02:36:29.592Z,24.75
2019-05-09T02:39:08.919Z,25.00
2019-05-09T02:41:59.584Z,20.50
2019-05-09T02:44:19.533Z,24.50
2019-05-09T02:46:52.571Z,24.80
2019-05-09T02:49:28.718Z,25.00
2019-05-09T02:52:01.974Z,25.00
2019-05-09T02:54:39.097Z,26.20
2019-05-09T02:57:11.090Z,25.00
2019-05-09T02:59:44.790Z,25.25
2019-05-09T03:02:19.508Z,24.75
2019-05-09T03:04:53.500Z,24.50
2019-05-09T03:07:28.825Z,25.00
2019-05-09T03:10:03.755Z,25.20
2019-05-09T03:12:39.860Z,24.25
2019-05-09T03:15:13.422Z,23.75
2019-05-09T03:17:49.440Z,23.25
2019-05-09T03:20:22.525Z,25.00
2019-05-09T03:22:58.272Z,24.00
2019-05-09T03:25:31.988Z,24.75
2019-05-09T03:28:05.702Z,23.00
2019-05-09T03:30:39.942Z,23.25
2019-05-09T03:33:13.721Z,22.60
2019-05-09T03:35:48.194Z,23.50
2019-05-09T03:38:21.907Z,24.75
2019-05-09T03:40:57.899Z,21.50
2019-05-09T03:43:31.189Z,22.75
2019-05-09T03:46:04.898Z,24.00
2019-05-09T03:48:38.601Z,22.50
2019-05-09T03:51:13.125Z,24.00
2019-05-09T03:53:48.394Z,24.60
2019-05-09T03:56:22.302Z,25.00
2019-05-09T03:58:57.855Z,24.75
2019-05-09T04:01:31.417Z,24.75
2019-05-09T04:04:05.115Z,23.00
2019-05-09T04:06:39.285Z,23.80
2019-05-09T04:09:13.141Z,24.75
2019-05-09T04:11:48.497Z,28.00
2019-05-09T04:14:22.430Z,24.75
2019-05-09T04:16:57.541Z,23.00
2019-05-09T04:19:31.426Z,23.00
2019-05-09T04:22:05.153Z,24.25
2019-05-09T04:24:38.880Z,23.80
2019-05-09T04:27:13.272Z,25.00
2019-05-09T04:29:48.402Z,23.40
2019-05-09T04:32:22.254Z,22.50
2019-05-09T04:34:57.804Z,22.60
2019-05-09T04:37:31.378Z,22.25
2019-05-09T04:40:05.115Z,20.40
2019-05-09T04:42:43.020Z,21.25
2019-05-09T04:45:14.218Z,21.00
2019-05-09T04:47:47.962Z,24.00
2019-05-09T04:50:24.893Z,22.00
2019-05-09T04:52:58.022Z,23.60
2019-05-09T04:55:31.852Z,21.00
2019-05-09T04:58:05.562Z,23.00
2019-05-09T05:00:39.271Z,25.00
2019-05-09T05:03:13.524Z,25.00
2019-05-09T05:05:48.212Z,25.00
2019-05-09T05:08:22.034Z,24.25
2019-05-09T05:10:58.089Z,22.00
2019-05-09T05:13:31.150Z,23.00
2019-05-09T05:16:04.916Z,22.00
2019-05-09T05:18:38.639Z,25.00
2019-05-09T05:21:12.322Z,23.60
2019-05-09T05:23:47.258Z,20.25
2019-05-09T05:26:21.016Z,23.75
2019-05-09T05:28:54.715Z,23.75
2019-05-09T05:31:28.689Z,20.25
2019-05-09T05:34:02.527Z,22.75
2019-05-09T05:36:38.232Z,22.75
2019-05-09T05:39:11.663Z,20.50
2019-05-09T05:41:45.371Z,18.00
2019-05-09T05:44:19.092Z,18.50
2019-05-09T05:46:52.826Z,17.00
2019-05-09T05:49:27.930Z,19.00
2019-05-09T05:52:01.817Z,16.50
2019-05-09T05:54:37.679Z,16.25
2019-05-09T05:57:10.943Z,15.00
2019-05-09T05:59:44.675Z,14.75
2019-05-09T06:02:18.385Z,16.00
2019-05-09T06:04:52.084Z,14.00
2019-05-09T06:07:25.792Z,14.50
2019-05-09T06:09:59.496Z,14.20
2019-05-09T06:12:33.223Z,14.25
2019-05-09T06:15:07.557Z,14.75
2019-05-09T06:17:41.499Z,12.40
2019-05-09T06:20:17.595Z,12.00
2019-05-09T06:22:50.620Z,14.25
2019-05-09T06:25:24.383Z,13.00
2019-05-09T06:27:58.557Z,14.00
2019-05-09T06:30:32.730Z,11.25
2019-05-09T06:33:08.969Z,12.00
2019-05-09T06:35:41.980Z,10.50
2019-05-09T06:38:15.707Z,11.00
2019-05-09T06:40:49.416Z,11.50
2019-05-09T06:43:23.114Z,9.75
2019-05-09T06:45:57.555Z,10.20
2019-05-09T06:48:31.335Z,9.50
2019-05-09T06:51:07.202Z,9.50
2019-05-09T06:53:40.456Z,10.00
2019-05-09T06:56:14.153Z,9.00
2019-05-09T06:58:48.215Z,10.00
2019-05-09T07:01:22.055Z,10.00
2019-05-09T07:03:57.534Z,9.00
2019-05-09T07:06:31.366Z,11.00
2019-05-09T07:09:08.423Z,9.00
2019-05-09T07:11:42.284Z,6.25
2019-05-09T07:14:26.665Z,6.00
2019-05-09T07:16:51.411Z,8.40
2019-05-09T07:19:25.113Z,11.00
2019-05-09T07:21:58.853Z,8.00
2019-05-09T07:24:32.545Z,7.25
2019-05-09T07:27:07.330Z,8.00
2019-05-09T07:29:41.143Z,7.50
2019-05-09T07:32:14.849Z,6.50
2019-05-09T07:34:48.565Z,7.20
2019-05-09T07:37:22.274Z,8.00
2019-05-09T07:39:57.747Z,8.50
2019-05-09T07:42:31.380Z,7.00
2019-05-09T07:45:05.833Z,8.00
2019-05-09T07:47:39.545Z,6.60
2019-05-09T07:50:13.835Z,7.00
2019-05-09T07:52:47.897Z,7.40
2019-05-09T07:55:21.831Z,7.00
2019-05-09T07:57:58.160Z,8.00
2019-05-09T08:00:32.901Z,7.50
2019-05-09T08:03:09.250Z,7.00
2019-05-09T08:05:42.034Z,6.50
2019-05-09T08:08:18.334Z,6.00
2019-05-09T08:10:51.401Z,7.00
2019-05-09T08:13:25.092Z,6.00
2019-05-09T08:15:58.917Z,5.20
2019-05-09T08:18:32.588Z,6.00
2019-05-09T08:21:08.277Z,7.00
2019-05-09T08:23:41.773Z,6.60
2019-05-09T08:26:15.466Z,7.50
2019-05-09T08:28:49.207Z,7.50
2019-05-09T08:31:22.940Z,6.50
2019-05-09T08:33:59.047Z,6.00
2019-05-09T08:36:32.034Z,7.25
2019-05-09T08:39:08.118Z,5.60
2019-05-09T08:41:43.564Z,7.00
2019-05-09T08:44:18.702Z,7.00
2019-05-09T08:46:52.558Z,7.25
2019-05-09T08:49:28.556Z,7.25
2019-05-09T08:52:15.474Z,7.00
2019-05-09T08:54:38.040Z,8.00
2019-05-09T08:57:13.062Z,8.00
2019-05-09T08:59:50.224Z,7.80
2019-05-09T09:02:22.589Z,7.00
2019-05-09T09:04:58.224Z,9.00
2019-05-09T09:07:31.874Z,10.50
2019-05-09T09:10:08.212Z,7.50
2019-05-09T09:12:41.125Z,8.00
2019-05-09T09:15:14.820Z,6.20
2019-05-09T09:17:49.266Z,8.00
2019-05-09T09:20:22.984Z,9.00
2019-05-09T09:22:58.198Z,9.75
2019-05-09T09:25:32.330Z,8.75
2019-05-09T09:28:08.496Z,9.00
2019-05-09T09:30:41.435Z,9.00
2019-05-09T09:33:17.470Z,10.00
2019-05-09T09:35:50.567Z,9.25
2019-05-09T09:38:24.298Z,10.00
2019-05-09T09:40:58.202Z,10.00
2019-05-09T09:43:32.027Z,9.80
2019-05-09T09:46:11.829Z,8.00
2019-05-09T09:48:41.126Z,9.00
2019-05-09T09:51:14.829Z,10.00
2019-05-09T09:53:49.124Z,11.00
2019-05-09T09:56:22.969Z,9.80
2019-05-09T09:58:57.698Z,9.00
2019-05-09T10:01:31.468Z,9.33
2019-05-09T10:04:16.732Z,9.20
2019-05-09T10:06:40.671Z,8.50
2019-05-09T10:09:14.376Z,8.00
2019-05-09T10:11:48.473Z,7.80
2019-05-09T10:14:22.299Z,8.25
2019-05-09T10:16:58.073Z,8.75
2019-05-09T10:19:31.408Z,6.00
2019-05-09T10:22:05.111Z,5.00
2019-05-09T10:24:38.838Z,5.00
2019-05-09T10:27:13.383Z,6.40
2019-05-09T10:29:48.006Z,7.60
2019-05-09T10:32:21.860Z,8.00
2019-05-09T10:34:57.885Z,5.00
2019-05-09T10:37:30.982Z,7.25
2019-05-09T10:40:05.768Z,6.50
2019-05-09T10:42:39.510Z,6.00
2019-05-09T10:45:13.400Z,6.00
2019-05-09T10:47:48.317Z,7.50
2019-05-09T10:50:22.185Z,6.00
2019-05-09T10:52:58.196Z,9.50
2019-05-09T10:55:31.326Z,6.00
2019-05-09T10:58:07.865Z,6.00
2019-05-09T11:00:40.437Z,6.00
2019-05-09T11:03:14.130Z,6.00
2019-05-09T11:05:47.828Z,6.00
2019-05-09T11:08:21.557Z,6.00
2019-05-09T11:10:55.244Z,6.00
2019-05-09T11:13:28.948Z,5.00
2019-05-09T11:16:02.678Z,7.00
2019-05-09T11:18:36.416Z,6.80
2019-05-09T11:21:10.119Z,8.50
2019-05-09T11:23:43.873Z,9.00
2019-05-09T11:26:18.122Z,7.40
2019-05-09T11:28:52.094Z,7.00
2019-05-09T11:31:25.823Z,8.25
2019-05-09T11:33:59.510Z,6.00
2019-05-09T11:36:33.227Z,7.50
2019-05-09T11:39:10.647Z,6.00
2019-05-09T11:41:42.967Z,6.25
2019-05-09T11:44:18.452Z,7.00
2019-05-09T11:46:52.280Z,6.25
2019-05-09T11:49:25.979Z,7.00
2019-05-09T11:51:59.694Z,8.25
2019-05-09T11:54:33.393Z,8.20
2019-05-09T11:57:07.677Z,7.00
2019-05-09T11:59:41.523Z,8.60
2019-05-09T12:02:15.238Z,7.75
2019-05-09T12:04:49.012Z,6.25
2019-05-09T12:07:22.713Z,8.20
2019-05-09T12:09:58.684Z,6.25
2019-05-09T12:12:31.789Z,7.00
2019-05-09T12:15:08.778Z,8.25
2019-05-09T12:17:56.026Z,7.00
2019-05-09T12:20:18.145Z,6.83
2019-05-09T12:22:52.040Z,6.50
2019-05-09T12:25:28.084Z,6.20
2019-05-09T12:28:01.134Z,7.50
2019-05-09T12:30:34.837Z,7.00
2019-05-09T12:33:08.796Z,8.00
2019-05-09T12:35:42.522Z,7.50
2019-05-09T12:38:18.087Z,6.75
2019-05-09T12:40:51.638Z,5.00
2019-05-09T12:43:25.350Z,6.25
2019-05-09T12:45:59.042Z,6.00
2019-05-09T12:48:32.762Z,6.60
2019-05-09T12:51:08.246Z,6.50
2019-05-09T12:53:42.073Z,5.00
2019-05-09T12:56:18.495Z,6.20
2019-05-09T12:58:51.176Z,5.50
2019-05-09T13:01:24.876Z,8.00
2019-05-09T13:03:58.567Z,6.25
2019-05-09T13:06:32.260Z,6.25
2019-05-09T13:09:08.401Z,7.00
2019-05-09T13:11:41.841Z,8.00
2019-05-09T13:14:15.549Z,6.25
2019-05-09T13:16:53.340Z,8.00
2019-05-09T13:19:24.635Z,7.00
2019-05-09T13:21:58.798Z,7.75
2019-05-09T13:24:32.650Z,7.25
2019-05-09T13:27:07.885Z,7.00
2019-05-09T13:29:41.916Z,7.60
2019-05-09T13:32:17.888Z,6.00
2019-05-09T13:34:51.025Z,6.80
2019-05-09T13:37:29.190Z,7.75
2019-05-09T13:40:00.131Z,7.75
2019-05-09T13:42:33.861Z,5.80
2019-05-09T13:45:08.305Z,7.25
2019-05-09T13:47:42.106Z,6.60
2019-05-09T13:50:18.410Z,5.00
2019-05-09T13:52:51.383Z,6.50
2019-05-09T13:55:27.426Z,6.00
2019-05-09T13:58:00.471Z,5.00
2019-05-09T14:00:34.175Z,5.20
2019-05-09T14:03:08.285Z,5.25
2019-05-09T14:05:42.192Z,6.00
2019-05-09T14:08:18.202Z,5.50
2019-05-09T14:10:51.277Z,5.80
2019-05-09T14:13:24.965Z,5.00
2019-05-09T14:15:58.664Z,6.00
2019-05-09T14:18:32.361Z,6.80
2019-05-09T14:21:07.695Z,6.75
2019-05-09T14:23:50.974Z,7.00
2019-05-09T14:26:17.988Z,7.00
2019-05-09T14:28:51.970Z,5.75
2019-05-09T14:31:29.917Z,4.25
2019-05-09T14:34:01.048Z,3.75
2019-05-09T14:36:34.744Z,3.00
2019-05-09T14:39:09.274Z,2.20
2019-05-09T14:41:46.997Z,2.20
2019-05-09T14:44:18.900Z,2.00
2019-05-09T14:46:52.590Z,2.75
2019-05-09T14:49:39.670Z,1.00
2019-05-09T14:52:01.707Z,3.00
2019-05-09T14:54:35.390Z,2.00
2019-05-09T14:57:09.759Z,2.00
2019-05-09T14:59:43.591Z,2.00
2019-05-09T15:02:17.943Z,2.00
2019-05-09T15:04:51.775Z,2.00
2019-05-09T15:07:25.481Z,2.00
2019-05-09T15:09:59.877Z,3.00
2019-05-09T15:12:33.748Z,2.00
2019-05-09T15:15:08.111Z,3.00
2019-05-09T15:17:41.794Z,2.00
2019-05-09T15:20:17.879Z,2.00
2019-05-09T15:22:50.913Z,2.00
2019-05-09T15:25:24.609Z,2.00
2019-05-09T15:27:58.363Z,2.25
2019-05-09T15:30:32.073Z,2.50
2019-05-09T15:33:08.179Z,2.25
2019-05-09T15:35:41.163Z,2.25
2019-05-09T15:38:14.870Z,2.75
2019-05-09T15:40:48.584Z,3.00
2019-05-09T15:43:22.329Z,2.00
2019-05-09T15:45:58.210Z,3.25
2019-05-09T15:48:31.441Z,2.20
2019-05-09T15:51:07.413Z,2.00
2019-05-09T15:53:40.549Z,4.00
2019-05-09T15:56:14.241Z,2.00
2019-05-09T15:58:48.999Z,2.00
2019-05-09T16:01:22.907Z,2.00
2019-05-09T16:03:56.626Z,1.25
2019-05-09T16:06:33.063Z,1.25
2019-05-09T16:09:09.253Z,2.80
2019-05-09T16:11:41.146Z,1.75
2019-05-09T16:14:14.843Z,2.00
2019-05-09T16:16:48.529Z,2.00
2019-05-09T16:19:22.225Z,1.50
2019-05-09T16:21:55.929Z,1.00
2019-05-09T16:24:29.618Z,1.00
2019-05-09T16:27:03.380Z,1.50
2019-05-09T16:29:38.264Z,1.00
2019-05-09T16:32:13.177Z,2.00
2019-05-09T16:34:46.866Z,2.00
2019-05-09T16:37:20.545Z,1.00
2019-05-09T16:39:54.241Z,2.00
2019-05-09T16:42:28.311Z,1.00
2019-05-09T16:45:02.383Z,1.00
2019-05-09T16:47:36.065Z,1.40
2019-05-09T16:50:12.030Z,1.00
2019-05-09T16:52:45.180Z,2.00
2019-05-09T16:55:18.890Z,1.00
2019-05-09T16:57:52.572Z,1.25
2019-05-09T17:00:31.506Z,2.00
2019-05-09T17:03:05.227Z,1.40
2019-05-09T17:05:38.940Z,1.00
2019-05-09T17:08:13.442Z,1.00
2019-05-09T17:10:48.647Z,2.20
2019-05-09T17:13:22.696Z,2.50
2019-05-09T17:15:56.416Z,3.00
2019-05-09T17:18:30.102Z,2.80
2019-05-09T17:21:17.739Z,3.50
2019-05-09T17:23:39.220Z,3.00
2019-05-09T17:26:13.417Z,3.00
2019-05-09T17:28:48.498Z,2.00
2019-05-09T17:31:22.426Z,2.00
2019-05-09T17:33:57.918Z,2.80
2019-05-09T17:36:31.546Z,2.00
2019-05-09T17:39:07.776Z,2.60
2019-05-09T17:41:40.797Z,2.75
2019-05-09T17:44:14.506Z,2.25
2019-05-09T17:46:48.229Z,2.40
2019-05-09T17:49:21.996Z,3.25
2019-05-09T17:51:58.200Z,3.50
2019-05-09T17:54:31.098Z,0.00
2019-05-09T17:57:04.895Z,3.00
2019-05-09T17:59:39.209Z,3.00
2019-05-09T18:02:13.531Z,1.80
2019-05-09T18:04:47.974Z,3.60
2019-05-09T18:07:22.059Z,4.00
2019-05-09T18:09:57.928Z,4.00
2019-05-09T18:12:31.170Z,4.00
2019-05-09T18:15:07.664Z,3.75
2019-05-09T18:17:41.461Z,3.00
2019-05-09T18:20:17.442Z,2.00
2019-05-09T18:22:50.657Z,3.75
2019-05-09T18:25:24.452Z,3.80
2019-05-09T18:27:58.130Z,3.00
2019-05-09T18:30:31.870Z,2.00
2019-05-09T18:33:07.548Z,2.50
2019-05-09T18:35:41.052Z,2.00
2019-05-09T18:38:28.066Z,3.00
2019-05-09T18:41:07.047Z,2.75
2019-05-09T18:43:38.754Z,4.00
2019-05-09T18:46:12.456Z,8.80
2019-05-09T18:48:46.186Z,10.00
2019-05-09T18:51:19.919Z,9.25
2019-05-09T18:53:53.688Z,9.00
2019-05-09T18:56:27.408Z,8.00
2019-05-09T18:59:01.148Z,9.75
2019-05-09T19:01:34.890Z,10.00
2019-05-09T19:04:08.603Z,10.40
2019-05-09T19:06:42.347Z,9.75
2019-05-09T19:09:16.064Z,9.00
2019-05-09T19:11:49.857Z,8.00
2019-05-09T19:14:23.766Z,8.00
2019-05-09T19:16:57.497Z,9.00
2019-05-09T19:19:31.204Z,9.00
2019-05-09T19:22:21.080Z,10.00
2019-05-09T19:24:40.425Z,8.80
2019-05-09T19:27:14.180Z,8.50
2019-05-09T19:29:47.936Z,9.00
2019-05-09T19:32:21.648Z,10.00
2019-05-09T19:34:55.447Z,9.40
2019-05-09T19:37:29.158Z,10.00
2019-05-09T19:40:07.057Z,9.75
2019-05-09T19:42:40.777Z,8.50
2019-05-09T19:45:14.580Z,12.20
2019-05-09T19:47:48.307Z,9.25
2019-05-09T19:50:22.024Z,9.75
2019-05-09T19:52:55.754Z,9.25
2019-05-09T19:55:29.488Z,9.50
2019-05-09T19:58:04.169Z,9.00
2019-05-09T20:00:37.973Z,9.20
2019-05-09T20:03:11.771Z,9.00
2019-05-09T20:05:45.508Z,9.75
2019-05-09T20:08:19.293Z,9.25
2019-05-09T20:10:52.997Z,9.00
2019-05-09T20:13:26.740Z,9.00
2019-05-09T20:16:00.424Z,9.75
2019-05-09T20:18:34.180Z,9.00
2019-05-09T20:21:07.902Z,9.80
2019-05-09T20:23:41.652Z,8.50
2019-05-09T20:26:15.383Z,9.25
2019-05-09T20:28:49.082Z,8.20
2019-05-09T20:31:22.807Z,8.00
2019-05-09T20:33:56.533Z,8.75
2019-05-09T20:36:30.244Z,8.00
2019-05-09T20:39:05.304Z,8.00
2019-05-09T20:41:39.055Z,11.20
2019-05-09T20:44:13.218Z,12.00
2019-05-09T20:46:46.954Z,9.00
2019-05-09T20:49:20.658Z,9.00
2019-05-09T20:51:54.360Z,9.00
2019-05-09T20:54:28.097Z,9.20
2019-05-09T20:57:01.793Z,8.75
2019-05-09T20:59:35.525Z,9.00
2019-05-09T21:02:09.304Z,9.20
2019-05-09T21:04:43.038Z,9.60
2019-05-09T21:07:16.750Z,9.25
2019-05-09T21:09:50.460Z,8.25
2019-05-09T21:12:24.233Z,9.20
2019-05-09T21:14:57.947Z,9.75
2019-05-09T21:17:31.645Z,8.50
2019-05-09T21:20:05.718Z,9.25
2019-05-09T21:22:39.426Z,13.25
2019-05-09T21:25:13.472Z,12.60
2019-05-09T21:27:47.185Z,19.80
2019-05-09T21:30:20.910Z,16.25
2019-05-09T21:32:54.609Z,12.50
2019-05-09T21:35:28.311Z,11.75
2019-05-09T21:38:02.048Z,9.80
2019-05-09T21:40:35.823Z,11.25
2019-05-09T21:43:09.558Z,11.50
2019-05-09T21:45:43.266Z,11.25
2019-05-09T21:48:16.993Z,9.00
2019-05-09T21:50:50.689Z,9.75
2019-05-09T21:53:39.557Z,10.25
2019-05-09T21:55:59.825Z,10.25
2019-05-09T21:58:33.514Z,10.75
2019-05-09T22:01:07.210Z,13.25
2019-05-09T22:03:40.897Z,12.25
2019-05-09T22:06:14.593Z,13.00
2019-05-09T22:08:48.319Z,12.20
2019-05-09T22:11:22.033Z,12.00
2019-05-09T22:13:55.767Z,13.00
2019-05-09T22:16:29.462Z,12.00
2019-05-09T22:19:03.176Z,13.50
2019-05-09T22:21:36.893Z,9.50
2019-05-09T22:24:10.595Z,14.00
2019-05-09T22:26:44.325Z,11.00
2019-05-09T22:29:18.037Z,11.60
2019-05-09T22:31:51.750Z,11.50
2019-05-09T22:34:25.456Z,13.00
2019-05-09T22:36:59.180Z,13.00
2019-05-09T22:39:32.911Z,10.50
2019-05-09T22:42:06.613Z,11.00
2019-05-09T22:44:40.319Z,10.40
2019-05-09T22:47:14.039Z,11.25
2019-05-09T22:49:47.751Z,11.00
2019-05-09T22:52:21.489Z,11.00
2019-05-09T22:54:55.302Z,12.60
2019-05-09T22:57:29.007Z,11.25
2019-05-09T23:00:03.118Z,8.25
2019-05-09T23:02:36.885Z,10.25
2019-05-09T23:05:10.622Z,12.00
2019-05-09T23:07:44.331Z,11.00
2019-05-09T23:10:18.096Z,12.00
2019-05-09T23:12:51.861Z,13.00
2019-05-09T23:15:25.571Z,9.00
2019-05-09T23:17:59.286Z,12.00
2019-05-09T23:20:33.032Z,10.75
2019-05-09T23:23:06.812Z,8.60
2019-05-09T23:25:40.517Z,10.25
2019-05-09T23:28:14.246Z,9.25
2019-05-09T23:30:47.945Z,11.25
2019-05-09T23:33:21.673Z,10.00
2019-05-09T23:35:55.434Z,9.25
2019-05-09T23:38:29.171Z,10.50
2019-05-09T23:41:02.886Z,12.60
2019-05-09T23:43:36.604Z,11.25
2019-05-09T23:46:10.315Z,10.75
2019-05-09T23:48:44.042Z,11.50
2019-05-09T23:51:17.750Z,9.20
2019-05-09T23:53:51.484Z,10.75
2019-05-09T23:56:25.180Z,10.50
2019-05-09T23:58:58.903Z,10.00
